createdAt,value
2023-04-27T00:00:00.941Z,57.88
2023-04-27T00:03:35.635Z,57.88
2023-04-27T00:06:42.445Z,57.80
2023-04-27T00:09:48.326Z,57.52
2023-04-27T00:12:55.425Z,57.42
2023-04-27T00:16:03.980Z,58.32
2023-04-27T00:19:14.189Z,58.38
2023-04-27T00:22:22.195Z,58.85
2023-04-27T00:25:29.180Z,58.86
2023-04-27T00:28:35.192Z,59.25
2023-04-27T00:31:41.928Z,59.45
2023-04-27T00:34:50.514Z,59.72
2023-04-27T00:37:57.947Z,59.78
2023-04-27T00:41:09.480Z,60.22
2023-04-27T00:44:16.206Z,60.08
2023-04-27T00:47:22.985Z,60.71
2023-04-27T00:50:34.476Z,61.04
2023-04-27T00:53:42.033Z,61.70
2023-04-27T00:56:52.160Z,62.02
2023-04-27T00:59:58.670Z,61.81
2023-04-27T01:03:06.629Z,61.83
2023-04-27T01:06:15.191Z,61.99
2023-04-27T01:09:24.104Z,62.16
2023-04-27T01:12:30.077Z,62.21
2023-04-27T01:15:37.059Z,62.02
2023-04-27T01:18:44.619Z,62.17
2023-04-27T01:21:54.054Z,62.26
2023-04-27T01:25:02.575Z,62.09
2023-04-27T01:28:11.327Z,62.25
2023-04-27T01:31:17.719Z,62.47
2023-04-27T01:34:27.161Z,62.64
2023-04-27T01:37:33.069Z,63.06
2023-04-27T01:40:42.529Z,63.45
2023-04-27T01:43:48.399Z,63.70
2023-04-27T01:46:55.190Z,63.99
2023-04-27T01:50:01.143Z,64.20
2023-04-27T01:53:07.905Z,64.63
2023-04-27T01:56:17.050Z,64.75
2023-04-27T01:59:23.915Z,64.68
2023-04-27T02:02:31.009Z,64.55
2023-04-27T02:05:37.996Z,64.43
2023-04-27T02:08:44.036Z,64.27
2023-04-27T02:11:53.337Z,64.30
2023-04-27T02:14:59.403Z,64.40
2023-04-27T02:18:06.907Z,64.12
2023-04-27T02:21:13.266Z,64.25
2023-04-27T02:24:20.564Z,64.56
2023-04-27T02:27:29.256Z,64.18
2023-04-27T02:30:38.159Z,64.19
2023-04-27T02:33:44.176Z,64.47
2023-04-27T02:36:50.958Z,63.86
2023-04-27T02:39:56.950Z,64.19
2023-04-27T02:43:06.599Z,64.78
2023-04-27T02:46:12.629Z,65.11
2023-04-27T02:49:19.653Z,64.85
2023-04-27T02:52:25.755Z,65.37
2023-04-27T02:55:32.991Z,65.27
2023-04-27T02:58:41.477Z,65.35
2023-04-27T03:01:51.659Z,65.29
2023-04-27T03:04:57.902Z,65.27
2023-04-27T03:08:04.703Z,65.21
2023-04-27T03:11:12.817Z,65.64
2023-04-27T03:14:23.492Z,65.44
2023-04-27T03:17:31.558Z,65.49
2023-04-27T03:20:38.325Z,65.36
2023-04-27T03:23:44.318Z,65.54
2023-04-27T03:26:51.527Z,65.87
2023-04-27T03:30:03.870Z,65.91
2023-04-27T03:33:10.752Z,65.80
2023-04-27T03:36:16.886Z,65.59
2023-04-27T03:39:23.743Z,65.43
2023-04-27T03:42:29.871Z,65.33
2023-04-27T03:45:39.481Z,65.15
2023-04-27T03:48:47.498Z,65.03
2023-04-27T03:51:54.754Z,65.06
2023-04-27T03:55:00.864Z,65.03
2023-04-27T03:58:07.817Z,64.77
2023-04-27T04:01:16.929Z,64.21
2023-04-27T04:04:24.821Z,64.43
2023-04-27T04:07:31.511Z,63.86
2023-04-27T04:10:39.543Z,63.55
2023-04-27T04:13:46.439Z,63.19
2023-04-27T04:16:56.180Z,62.65
2023-04-27T04:20:02.491Z,62.53
2023-04-27T04:23:09.537Z,62.29
2023-04-27T04:26:15.845Z,62.35
2023-04-27T04:29:22.998Z,61.80
2023-04-27T04:32:32.212Z,62.04
2023-04-27T04:35:41.838Z,62.40
2023-04-27T04:38:47.957Z,62.20
2023-04-27T04:41:56.736Z,61.58
2023-04-27T04:45:07.678Z,61.14
2023-04-27T04:48:18.433Z,60.01
2023-04-27T04:51:24.853Z,59.09
2023-04-27T04:54:31.847Z,58.15
2023-04-27T04:57:38.242Z,57.57
2023-04-27T05:00:46.047Z,57.65
2023-04-27T05:03:56.559Z,56.90
2023-04-27T05:07:04.875Z,56.79
2023-04-27T05:10:12.064Z,56.67
2023-04-27T05:13:18.957Z,55.43
2023-04-27T05:16:26.740Z,55.72
2023-04-27T05:19:37.320Z,55.08
2023-04-27T05:22:47.765Z,55.29
2023-04-27T05:25:54.473Z,54.73
2023-04-27T05:29:00.361Z,53.83
2023-04-27T05:32:17.092Z,53.32
2023-04-27T05:35:25.740Z,52.92
2023-04-27T05:38:33.754Z,53.18
2023-04-27T05:41:39.834Z,52.10
2023-04-27T05:44:46.629Z,49.54
2023-04-27T05:47:52.781Z,47.64
2023-04-27T05:51:09.362Z,43.63
2023-04-27T05:54:15.376Z,42.60
2023-04-27T05:57:22.244Z,40.84
2023-04-27T06:00:28.847Z,40.64
2023-04-27T06:03:35.975Z,39.98
2023-04-27T06:06:45.104Z,38.68
2023-04-27T06:09:56.918Z,37.48
2023-04-27T06:13:05.028Z,36.89
2023-04-27T06:16:18.130Z,37.36
2023-04-27T06:19:24.122Z,36.37
2023-04-27T06:22:34.635Z,34.72
2023-04-27T06:25:40.992Z,34.57
2023-04-27T06:28:47.993Z,32.75
2023-04-27T06:31:53.946Z,32.10
2023-04-27T06:35:00.993Z,33.52
2023-04-27T06:38:10.765Z,34.25
2023-04-27T06:41:17.516Z,34.18
2023-04-27T06:44:25.861Z,32.33
2023-04-27T06:47:32.824Z,31.41
2023-04-27T06:50:38.741Z,31.88
2023-04-27T06:53:48.172Z,32.84
2023-04-27T06:56:55.088Z,31.63
2023-04-27T07:00:02.225Z,30.29
2023-04-27T07:03:08.388Z,29.86
2023-04-27T07:06:15.388Z,31.17
2023-04-27T07:09:27.500Z,29.10
2023-04-27T07:12:34.688Z,29.04
2023-04-27T07:15:40.760Z,30.42
2023-04-27T07:18:47.588Z,29.39
2023-04-27T07:21:53.685Z,29.22
2023-04-27T07:25:04.502Z,29.60
2023-04-27T07:28:10.689Z,27.65
2023-04-27T07:31:18.012Z,27.38
2023-04-27T07:34:24.337Z,29.44
2023-04-27T07:37:31.456Z,29.37
2023-04-27T07:40:40.655Z,28.02
2023-04-27T07:43:48.690Z,28.47
2023-04-27T07:46:58.805Z,30.61
2023-04-27T07:50:06.551Z,32.77
2023-04-27T07:53:12.590Z,32.11
2023-04-27T07:56:22.012Z,33.33
2023-04-27T07:59:28.094Z,33.87
2023-04-27T08:02:35.085Z,35.02
2023-04-27T08:05:41.423Z,36.27
2023-04-27T08:08:48.364Z,34.60
2023-04-27T08:11:57.314Z,31.79
2023-04-27T08:15:04.299Z,31.45
2023-04-27T08:18:10.253Z,31.98
2023-04-27T08:21:17.186Z,33.63
2023-04-27T08:24:24.012Z,34.56
2023-04-27T08:27:34.918Z,34.63
2023-04-27T08:30:40.987Z,34.42
2023-04-27T08:33:47.920Z,34.56
2023-04-27T08:36:54.382Z,34.19
2023-04-27T08:40:01.432Z,34.86
2023-04-27T08:43:12.029Z,34.93
2023-04-27T08:46:23.168Z,33.64
2023-04-27T08:49:29.711Z,34.18
2023-04-27T08:52:37.677Z,34.42
2023-04-27T08:55:43.735Z,35.36
2023-04-27T08:58:55.211Z,35.91
2023-04-27T09:02:01.655Z,36.15
2023-04-27T09:05:10.164Z,36.08
2023-04-27T09:08:16.079Z,37.02
2023-04-27T09:11:35.207Z,36.15
2023-04-27T09:14:47.257Z,35.54
2023-04-27T09:17:59.639Z,35.35
2023-04-27T09:21:14.249Z,34.35
2023-04-27T09:24:24.906Z,32.45
2023-04-27T09:27:31.067Z,32.49
2023-04-27T09:30:40.720Z,33.92
2023-04-27T09:33:49.045Z,33.62
2023-04-27T09:36:56.960Z,34.63
2023-04-27T09:40:05.868Z,35.47
2023-04-27T09:43:14.826Z,34.04
2023-04-27T09:46:26.276Z,35.07
2023-04-27T09:49:36.981Z,35.80
2023-04-27T09:52:43.165Z,34.28
2023-04-27T09:56:11.420Z,35.35
2023-04-27T09:59:45.001Z,34.19
2023-04-27T10:03:18.223Z,33.51
2023-04-27T10:07:06.878Z,34.19
2023-04-27T10:10:22.120Z,35.38
2023-04-27T10:13:30.392Z,35.75
2023-04-27T10:16:50.155Z,35.06
2023-04-27T10:20:02.094Z,36.79
2023-04-27T10:23:09.320Z,35.17
2023-04-27T10:26:15.353Z,36.25
2023-04-27T10:29:22.219Z,35.98
2023-04-27T10:32:29.875Z,36.33
2023-04-27T10:35:42.496Z,35.11
2023-04-27T10:38:48.643Z,32.41
2023-04-27T10:41:59.342Z,32.28
2023-04-27T10:45:11.789Z,32.98
2023-04-27T10:48:18.661Z,33.11
2023-04-27T10:51:31.292Z,31.28
2023-04-27T10:54:40.238Z,32.83
2023-04-27T10:57:51.543Z,31.45
2023-04-27T11:00:58.353Z,31.03
2023-04-27T11:04:06.785Z,31.38
2023-04-27T11:07:26.422Z,31.56
2023-04-27T11:10:36.950Z,31.99
2023-04-27T11:13:46.772Z,32.45
2023-04-27T11:16:53.330Z,32.97
2023-04-27T11:20:00.411Z,32.96
2023-04-27T11:23:13.272Z,34.97
2023-04-27T11:26:22.885Z,34.88
2023-04-27T11:29:28.958Z,35.39
2023-04-27T11:32:36.779Z,34.71
2023-04-27T11:35:43.182Z,36.10
2023-04-27T11:38:52.956Z,36.38
2023-04-27T11:41:59.049Z,35.13
2023-04-27T11:45:09.663Z,34.74
2023-04-27T11:48:19.338Z,36.28
2023-04-27T11:51:29.218Z,35.67
2023-04-27T11:54:38.030Z,36.03
2023-04-27T11:57:45.678Z,33.74
2023-04-27T12:00:52.279Z,32.53
2023-04-27T12:04:02.259Z,33.44
2023-04-27T12:07:16.948Z,31.81
2023-04-27T12:10:25.974Z,31.55
2023-04-27T12:13:32.032Z,31.24
2023-04-27T12:16:45.436Z,32.10
2023-04-27T12:19:51.810Z,32.00
2023-04-27T12:23:01.656Z,31.67
2023-04-27T12:26:07.829Z,31.73
2023-04-27T12:29:14.636Z,32.67
2023-04-27T12:32:20.540Z,32.28
2023-04-27T12:35:27.682Z,33.65
2023-04-27T12:38:36.521Z,32.83
2023-04-27T12:41:43.349Z,33.46
2023-04-27T12:44:49.230Z,33.17
2023-04-27T12:48:04.018Z,34.15
2023-04-27T12:51:10.468Z,33.02
2023-04-27T12:54:20.218Z,33.89
2023-04-27T12:57:29.425Z,33.23
2023-04-27T13:00:37.051Z,34.46
2023-04-27T13:03:43.215Z,34.47
2023-04-27T13:06:50.329Z,33.91
2023-04-27T13:09:59.081Z,34.23
2023-04-27T13:13:07.313Z,35.17
2023-04-27T13:16:13.444Z,34.80
2023-04-27T13:19:20.339Z,34.02
2023-04-27T13:22:28.514Z,34.70
2023-04-27T13:25:37.951Z,34.00
2023-04-27T13:28:44.069Z,34.37
2023-04-27T13:31:51.004Z,33.99
2023-04-27T13:34:57.003Z,33.55
2023-04-27T13:38:03.940Z,33.39
2023-04-27T13:41:12.890Z,33.22
2023-04-27T13:44:21.705Z,33.67
2023-04-27T13:47:29.557Z,33.12
2023-04-27T13:50:37.258Z,33.30
2023-04-27T13:53:43.216Z,33.64
2023-04-27T13:56:58.688Z,33.82
2023-04-27T14:00:08.169Z,33.72
2023-04-27T14:03:16.472Z,33.60
2023-04-27T14:06:22.693Z,34.38
2023-04-27T14:09:29.625Z,34.59
2023-04-27T14:12:38.982Z,35.44
2023-04-27T14:15:46.125Z,35.45
2023-04-27T14:18:52.632Z,35.13
2023-04-27T14:22:02.476Z,35.42
2023-04-27T14:25:10.105Z,34.24
2023-04-27T14:28:19.756Z,33.36
2023-04-27T14:31:28.439Z,33.86
2023-04-27T14:34:35.385Z,31.84
2023-04-27T14:37:41.391Z,32.53
2023-04-27T14:40:48.174Z,33.42
2023-04-27T14:44:05.055Z,32.62
2023-04-27T14:47:13.912Z,34.18
2023-04-27T14:50:20.476Z,33.33
2023-04-27T14:53:27.336Z,33.61
2023-04-27T14:56:34.037Z,33.92
2023-04-27T14:59:43.508Z,34.38
2023-04-27T15:02:49.623Z,34.93
2023-04-27T15:05:56.524Z,33.49
2023-04-27T15:09:02.601Z,34.46
2023-04-27T15:12:12.409Z,34.90
2023-04-27T15:15:21.263Z,34.39
2023-04-27T15:18:29.066Z,34.46
2023-04-27T15:21:35.432Z,34.40
2023-04-27T15:24:42.239Z,34.75
2023-04-27T15:27:48.382Z,35.11
2023-04-27T15:30:57.960Z,34.31
2023-04-27T15:34:06.712Z,34.88
2023-04-27T15:37:19.153Z,34.54
2023-04-27T15:40:29.211Z,35.29
2023-04-27T15:43:36.732Z,35.25
2023-04-27T15:46:45.446Z,36.22
2023-04-27T15:49:58.366Z,35.18
2023-04-27T15:53:07.966Z,35.19
2023-04-27T15:56:16.102Z,35.03
2023-04-27T15:59:22.340Z,36.02
2023-04-27T16:02:31.863Z,35.45
2023-04-27T16:05:37.899Z,36.62
2023-04-27T16:08:44.845Z,35.66
2023-04-27T16:11:50.856Z,35.41
2023-04-27T16:15:00.057Z,35.75
2023-04-27T16:18:09.594Z,36.42
2023-04-27T16:21:16.969Z,36.27
2023-04-27T16:24:29.535Z,36.81
2023-04-27T16:27:36.380Z,36.83
2023-04-27T16:30:42.565Z,36.60
2023-04-27T16:33:52.440Z,37.03
2023-04-27T16:36:58.994Z,38.22
2023-04-27T16:40:08.510Z,38.24
2023-04-27T16:43:18.350Z,38.39
2023-04-27T16:46:25.382Z,37.73
2023-04-27T16:49:38.742Z,37.84
2023-04-27T16:52:45.791Z,38.68
2023-04-27T16:55:53.732Z,38.03
2023-04-27T16:59:01.661Z,38.38
2023-04-27T17:02:23.170Z,38.67
2023-04-27T17:05:45.808Z,39.02
2023-04-27T17:09:08.520Z,39.30
2023-04-27T17:12:21.052Z,39.32
2023-04-27T17:15:28.944Z,40.45
2023-04-27T17:18:36.241Z,39.81
2023-04-27T17:21:44.838Z,40.00
2023-04-27T17:24:51.722Z,40.38
2023-04-27T17:28:00.109Z,39.68
2023-04-27T17:31:08.288Z,39.85
2023-04-27T17:34:14.930Z,39.92
2023-04-27T17:37:24.413Z,40.05
2023-04-27T17:40:30.571Z,39.75
2023-04-27T17:43:37.921Z,39.82
2023-04-27T17:46:49.942Z,40.32
2023-04-27T17:49:56.831Z,40.37
2023-04-27T17:53:05.362Z,40.64
2023-04-27T17:56:12.326Z,40.65
2023-04-27T17:59:19.678Z,41.17
2023-04-27T18:02:26.713Z,41.92
2023-04-27T18:05:32.962Z,41.93
2023-04-27T18:08:42.358Z,42.11
2023-04-27T18:11:51.281Z,42.57
2023-04-27T18:14:58.887Z,43.10
2023-04-27T18:18:23.169Z,43.45
2023-04-27T18:21:33.276Z,43.79
2023-04-27T18:24:48.513Z,43.99
2023-04-27T18:27:57.341Z,44.04
2023-04-27T18:31:03.502Z,45.11
2023-04-27T18:34:10.226Z,45.79
2023-04-27T18:37:16.729Z,46.19
2023-04-27T18:40:26.453Z,46.33
2023-04-27T18:43:33.903Z,46.31
2023-04-27T18:46:40.617Z,47.40
2023-04-27T18:49:46.662Z,47.75
2023-04-27T18:52:53.666Z,49.07
2023-04-27T18:56:03.286Z,49.05
2023-04-27T18:59:10.121Z,49.41
2023-04-27T19:02:16.272Z,50.12
2023-04-27T19:05:23.299Z,50.79
2023-04-27T19:08:29.257Z,51.79
2023-04-27T19:11:40.127Z,52.68
2023-04-27T19:14:46.122Z,53.77
2023-04-27T19:18:02.850Z,54.06
2023-04-27T19:21:15.891Z,54.07
2023-04-27T19:24:22.758Z,54.35
2023-04-27T19:27:31.509Z,54.41
2023-04-27T19:30:38.516Z,55.10
2023-04-27T19:33:47.425Z,55.76
2023-04-27T19:37:01.813Z,56.03
2023-04-27T19:40:09.769Z,56.20
2023-04-27T19:43:19.650Z,56.57
2023-04-27T19:46:26.913Z,56.59
2023-04-27T19:49:35.800Z,56.87
2023-04-27T19:52:41.768Z,57.50
2023-04-27T19:55:51.912Z,58.11
2023-04-27T19:59:00.515Z,58.27
2023-04-27T20:02:07.532Z,58.49
2023-04-27T20:05:13.961Z,58.69
2023-04-27T20:08:21.002Z,58.99
2023-04-27T20:11:27.966Z,59.52
2023-04-27T20:14:39.013Z,60.41
2023-04-27T20:17:45.147Z,60.55
2023-04-27T20:20:53.522Z,60.98
2023-04-27T20:24:07.550Z,60.49
2023-04-27T20:27:18.730Z,60.98
2023-04-27T20:30:30.752Z,61.10
2023-04-27T20:33:38.578Z,61.52
2023-04-27T20:36:54.556Z,61.66
2023-04-27T20:40:01.610Z,61.50
2023-04-27T20:43:08.358Z,61.53
2023-04-27T20:46:17.769Z,61.46
2023-04-27T20:49:34.555Z,61.61
2023-04-27T20:52:42.086Z,61.62
2023-04-27T20:55:47.970Z,62.46
2023-04-27T20:58:54.688Z,62.53
2023-04-27T21:02:10.267Z,62.95
2023-04-27T21:05:19.006Z,63.44
2023-04-27T21:08:25.183Z,63.49
2023-04-27T21:11:31.932Z,63.86
2023-04-27T21:14:38.000Z,63.27
2023-04-27T21:17:47.415Z,63.40
2023-04-27T21:20:53.642Z,63.67
2023-04-27T21:24:07.264Z,63.42
2023-04-27T21:27:19.746Z,63.86
2023-04-27T21:30:27.125Z,63.30
2023-04-27T21:33:35.784Z,63.20
2023-04-27T21:36:42.829Z,63.19
2023-04-27T21:39:48.907Z,63.18
2023-04-27T21:42:56.711Z,63.72
2023-04-27T21:46:02.636Z,63.93
2023-04-27T21:49:20.586Z,63.77
2023-04-27T21:52:28.009Z,63.74
2023-04-27T21:55:34.797Z,63.74
2023-04-27T21:58:40.698Z,64.52
2023-04-27T22:01:47.434Z,63.84
2023-04-27T22:04:56.894Z,63.12
2023-04-27T22:08:03.926Z,63.65
2023-04-27T22:11:09.803Z,63.56
2023-04-27T22:14:17.354Z,63.13
2023-04-27T22:17:26.443Z,62.88
2023-04-27T22:20:36.177Z,63.25
2023-04-27T22:23:42.077Z,63.25
2023-04-27T22:26:48.826Z,63.33
2023-04-27T22:29:54.730Z,63.62
2023-04-27T22:33:08.633Z,63.38
2023-04-27T22:36:22.977Z,63.26
2023-04-27T22:39:29.803Z,62.56
2023-04-27T22:42:35.861Z,61.99
2023-04-27T22:45:42.634Z,62.22
2023-04-27T22:48:49.054Z,61.98
2023-04-27T22:51:58.787Z,62.92
2023-04-27T22:55:15.800Z,59.86
2023-04-27T22:58:24.593Z,58.90
2023-04-27T23:01:30.576Z,58.46
2023-04-27T23:04:37.508Z,58.01
2023-04-27T23:07:46.718Z,57.77
2023-04-27T23:10:54.507Z,57.95
2023-04-27T23:14:00.519Z,57.46
2023-04-27T23:17:07.726Z,57.52
2023-04-27T23:20:27.502Z,57.18
2023-04-27T23:23:37.702Z,57.57
2023-04-27T23:26:43.527Z,58.96
2023-04-27T23:29:50.202Z,59.25
2023-04-27T23:32:56.244Z,58.20
2023-04-27T23:36:03.237Z,58.17
2023-04-27T23:39:12.070Z,57.06
2023-04-27T23:42:19.015Z,57.54
2023-04-27T23:45:25.005Z,58.03
2023-04-27T23:48:31.864Z,58.01
2023-04-27T23:51:37.897Z,58.09
2023-04-27T23:54:47.275Z,58.48
2023-04-27T23:57:55.005Z,58.30
